Time;durP1;ratioP1;P1;durP2;ratioP2;P2;SDS_P1;SDS_P2;PMS_P1;PMS_P2;Temp;Humidity;BMP_temperature;BMP_pressure;BME280_temperature;BME280_humidity;BME280_pressure;Samples;Min_cycle;Max_cycle;Signal;HPM_P1;HPM_P2
2022/11/13 00:00:43;;;;;;;10.23;7.03;;;;;;;;;;4957774;28;20484;-54
2022/11/13 00:03:08;;;;;;;10.60;7.00;;;;;;;;;;4950232;28;20655;-54
2022/11/13 00:05:34;;;;;;;9.90;7.60;;;;;;;;;;4961448;28;20454;-53
2022/11/13 00:08:00;;;;;;;12.97;7.90;;;;;;;;;;4931639;28;20442;-54
2022/11/13 00:10:26;;;;;;;7.57;6.80;;;;;;;;;;4956434;28;20442;-53
2022/11/13 00:12:53;;;;;;;8.70;6.93;;;;;;;;;;4921027;28;20548;-55
2022/11/13 00:15:19;;;;;;;9.20;7.30;;;;;;;;;;4960884;28;20438;-55
2022/11/13 00:17:45;;;;;;;9.33;7.50;;;;;;;;;;4929665;28;20453;-55
2022/11/13 00:20:11;;;;;;;6.90;6.20;;;;;;;;;;4939795;28;20505;-55
2022/11/13 00:22:37;;;;;;;7.23;6.50;;;;;;;;;;4929987;28;20596;-55
2022/11/13 00:25:03;;;;;;;10.30;5.83;;;;;;;;;;4959354;28;20449;-55
2022/11/13 00:27:31;;;;;;;9.40;7.33;;;;;;;;;;4955955;28;20486;-55
2022/11/13 00:29:57;;;;;;;9.47;6.83;;;;;;;;;;4958716;28;20449;-53
2022/11/13 00:32:25;;;;;;;8.40;7.10;;;;;;;;;;4938508;28;20438;-53
2022/11/13 00:34:51;;;;;;;8.03;6.70;;;;;;;;;;4954567;28;20457;-55
2022/11/13 00:37:17;;;;;;;9.37;7.10;;;;;;;;;;4936244;28;20446;-53
2022/11/13 00:39:42;;;;;;;9.40;6.80;;;;;;;;;;4951683;28;20484;-54
2022/11/13 00:42:10;;;;;;;8.70;6.33;;;;;;;;;;4942416;28;20446;-53
2022/11/13 00:44:36;;;;;;;9.83;6.73;;;;;;;;;;4938821;28;20457;-55
2022/11/13 00:47:02;;;;;;;11.03;6.70;;;;;;;;;;4954908;28;20438;-56
2022/11/13 00:49:28;;;;;;;7.20;5.40;;;;;;;;;;4931429;28;20852;-56
2022/11/13 00:51:54;;;;;;;7.23;5.87;;;;;;;;;;4950228;28;20472;-55
2022/11/13 00:54:20;;;;;;;9.20;6.70;;;;;;;;;;4931715;28;20487;-54
2022/11/13 00:56:46;;;;;;;9.60;6.70;;;;;;;;;;4959030;28;20948;-54
2022/11/13 00:59:12;;;;;;;6.70;5.67;;;;;;;;;;4955435;28;21114;-54
2022/11/13 01:01:38;;;;;;;7.93;6.43;;;;;;;;;;4956560;28;20430;-54
2022/11/13 01:04:04;;;;;;;8.97;5.63;;;;;;;;;;4939916;28;20950;-54
2022/11/13 01:06:30;;;;;;;10.93;7.30;;;;;;;;;;4963564;28;20472;-54
2022/11/13 01:08:56;;;;;;;8.37;5.73;;;;;;;;;;4935012;28;20539;-53
2022/11/13 01:11:24;;;;;;;7.80;5.97;;;;;;;;;;4958359;28;21061;-54
2022/11/13 01:13:50;;;;;;;11.00;6.77;;;;;;;;;;4919565;28;24944;-55
2022/11/13 01:16:16;;;;;;;9.53;6.23;;;;;;;;;;4962447;28;20529;-55
2022/11/13 01:18:42;;;;;;;9.07;6.70;;;;;;;;;;4928358;28;21000;-55
2022/11/13 01:21:08;;;;;;;11.43;9.60;;;;;;;;;;4962251;28;20460;-55
2022/11/13 01:23:34;;;;;;;8.03;6.73;;;;;;;;;;4953254;28;20423;-53
2022/11/13 01:26:14;;;;;;;6.60;6.00;;;;;;;;;;4961420;28;20463;-54
2022/11/13 01:28:40;;;;;;;9.90;6.17;;;;;;;;;;4937916;28;23578;-55
2022/11/13 01:31:07;;;;;;;9.40;6.13;;;;;;;;;;4959808;28;20449;-56
2022/11/13 01:33:33;;;;;;;8.57;6.07;;;;;;;;;;4959257;28;20541;-54
2022/11/13 01:35:59;;;;;;;13.03;7.10;;;;;;;;;;4962496;28;20438;-56
2022/11/13 01:38:25;;;;;;;12.07;6.33;;;;;;;;;;4936919;28;20445;-53
2022/11/13 01:40:51;;;;;;;8.63;6.93;;;;;;;;;;4958825;28;20483;-55
2022/11/13 01:43:23;;;;;;;7.20;5.83;;;;;;;;;;4959096;28;20433;-55
2022/11/13 01:45:58;;;;;;;7.90;5.50;;;;;;;;;;4959923;28;20441;-55
2022/11/13 01:48:34;;;;;;;7.17;6.23;;;;;;;;;;4932368;28;20453;-54
2022/11/13 01:51:00;;;;;;;8.00;5.10;;;;;;;;;;4924051;28;20548;-55
2022/11/13 01:53:26;;;;;;;9.23;5.97;;;;;;;;;;4957383;28;20928;-55
2022/11/13 01:55:52;;;;;;;7.83;6.20;;;;;;;;;;4954269;28;21016;-56
2022/11/13 01:58:18;;;;;;;9.30;6.73;;;;;;;;;;4962419;28;20528;-55
2022/11/13 02:00:44;;;;;;;6.50;5.60;;;;;;;;;;4935591;28;20504;-55
2022/11/13 02:03:10;;;;;;;9.20;6.07;;;;;;;;;;4954949;28;20437;-53
2022/11/13 02:05:36;;;;;;;8.50;6.00;;;;;;;;;;4954968;28;20453;-53
2022/11/13 02:08:02;;;;;;;6.90;6.10;;;;;;;;;;4957265;28;20430;-55
2022/11/13 02:10:28;;;;;;;7.37;6.10;;;;;;;;;;4919441;28;20536;-54
2022/11/13 02:12:54;;;;;;;6.67;5.97;;;;;;;;;;4955230;28;20561;-56
2022/11/13 02:15:22;;;;;;;7.37;4.90;;;;;;;;;;4958123;28;20438;-55
2022/11/13 02:17:49;;;;;;;6.40;5.63;;;;;;;;;;4938234;28;20437;-55
2022/11/13 02:20:15;;;;;;;10.70;5.87;;;;;;;;;;4929935;28;20723;-54
2022/11/13 02:22:43;;;;;;;5.47;4.50;;;;;;;;;;4939936;28;20470;-53
2022/11/13 02:25:09;;;;;;;6.30;5.70;;;;;;;;;;4955067;28;20961;-54
2022/11/13 02:27:46;;;;;;;11.00;6.67;;;;;;;;;;4936699;28;20434;-55
2022/11/13 02:30:16;;;;;;;10.40;6.57;;;;;;;;;;4936998;28;20500;-53
2022/11/13 02:32:43;;;;;;;8.97;6.63;;;;;;;;;;4957669;28;21011;-52
2022/11/13 02:35:09;;;;;;;10.47;6.87;;;;;;;;;;4949730;28;20525;-56
2022/11/13 02:37:35;;;;;;;7.30;5.43;;;;;;;;;;4945460;28;20529;-55
2022/11/13 02:40:01;;;;;;;8.17;6.00;;;;;;;;;;4952946;28;20469;-56
2022/11/13 02:42:26;;;;;;;6.20;5.60;;;;;;;;;;4958054;28;20433;-55
2022/11/13 02:44:52;;;;;;;6.57;5.23;;;;;;;;;;4944407;28;22940;-56
2022/11/13 02:47:18;;;;;;;7.10;5.67;;;;;;;;;;4948435;28;20425;-56
2022/11/13 02:49:53;;;;;;;7.73;6.43;;;;;;;;;;4925025;28;20454;-55
2022/11/13 02:52:19;;;;;;;8.07;6.37;;;;;;;;;;4948366;28;20456;-55
2022/11/13 02:54:45;;;;;;;8.07;6.47;;;;;;;;;;4950945;28;20454;-55
2022/11/13 02:57:11;;;;;;;11.20;7.00;;;;;;;;;;4957482;28;20430;-55
2022/11/13 02:59:37;;;;;;;10.47;6.47;;;;;;;;;;4948752;28;20481;-53
2022/11/13 03:02:03;;;;;;;6.50;5.23;;;;;;;;;;4943299;28;20491;-55
2022/11/13 03:04:29;;;;;;;16.47;6.87;;;;;;;;;;4956596;28;20454;-54
2022/11/13 03:06:55;;;;;;;8.33;6.10;;;;;;;;;;4950555;28;21248;-55
2022/11/13 03:09:21;;;;;;;6.90;6.20;;;;;;;;;;4955623;28;20574;-55
2022/11/13 03:11:47;;;;;;;7.10;5.73;;;;;;;;;;4952706;28;20487;-54
2022/11/13 03:14:13;;;;;;;8.50;7.10;;;;;;;;;;4954768;28;20441;-56
2022/11/13 03:16:39;;;;;;;6.30;5.40;;;;;;;;;;4950257;28;20437;-54
2022/11/13 03:19:05;;;;;;;7.60;5.37;;;;;;;;;;4953178;28;20501;-55
2022/11/13 03:21:31;;;;;;;7.80;6.20;;;;;;;;;;4933267;28;20457;-54
2022/11/13 03:23:57;;;;;;;8.37;6.60;;;;;;;;;;4948195;28;20427;-55
2022/11/13 03:26:23;;;;;;;8.07;6.80;;;;;;;;;;4914511;28;21017;-55
2022/11/13 03:28:49;;;;;;;9.07;6.73;;;;;;;;;;4956280;28;20638;-54
2022/11/13 03:31:15;;;;;;;8.17;6.83;;;;;;;;;;4932654;28;20434;-54
2022/11/13 03:33:40;;;;;;;9.60;7.97;;;;;;;;;;4958997;28;20486;-55
2022/11/13 03:36:07;;;;;;;8.70;7.80;;;;;;;;;;4951864;28;20470;-55
2022/11/13 03:38:33;;;;;;;11.93;7.40;;;;;;;;;;4960584;28;20511;-56
2022/11/13 03:40:59;;;;;;;9.90;7.00;;;;;;;;;;4934060;28;20854;-53
2022/11/13 03:43:25;;;;;;;10.90;7.87;;;;;;;;;;4958525;28;20438;-54
2022/11/13 03:45:51;;;;;;;8.90;6.40;;;;;;;;;;4951666;28;20434;-54
2022/11/13 03:48:17;;;;;;;10.13;6.87;;;;;;;;;;4957377;28;20442;-54
2022/11/13 03:50:47;;;;;;;7.77;6.50;;;;;;;;;;4947920;28;20791;-54
2022/11/13 03:53:13;;;;;;;7.87;6.70;;;;;;;;;;4954925;28;20457;-54
2022/11/13 03:55:40;;;;;;;10.33;8.77;;;;;;;;;;4942248;28;20969;-54
2022/11/13 03:58:06;;;;;;;8.10;6.90;;;;;;;;;;4946345;28;20828;-54
2022/11/13 04:00:32;;;;;;;8.53;6.97;;;;;;;;;;4946618;28;20485;-54
2022/11/13 04:02:58;;;;;;;8.33;7.40;;;;;;;;;;4945306;28;20981;-54
2022/11/13 04:05:24;;;;;;;16.70;7.97;;;;;;;;;;4949551;28;20450;-54
2022/11/13 04:07:50;;;;;;;15.70;9.10;;;;;;;;;;4943121;28;20855;-53
2022/11/13 04:10:17;;;;;;;11.70;8.00;;;;;;;;;;4957131;28;20433;-53
2022/11/13 04:12:43;;;;;;;32.50;9.10;;;;;;;;;;4936125;28;20463;-57
2022/11/13 04:15:09;;;;;;;9.77;7.57;;;;;;;;;;4956042;28;20448;-55
2022/11/13 04:17:35;;;;;;;10.37;8.17;;;;;;;;;;4952073;28;20438;-53
2022/11/13 04:20:01;;;;;;;17.63;8.40;;;;;;;;;;4959371;28;20491;-54
2022/11/13 04:22:27;;;;;;;12.70;8.30;;;;;;;;;;4932164;28;20449;-52
2022/11/13 04:24:53;;;;;;;13.00;8.53;;;;;;;;;;4956479;28;20438;-53
2022/11/13 04:27:18;;;;;;;11.70;8.40;;;;;;;;;;4954430;28;20438;-53
2022/11/13 04:29:44;;;;;;;10.37;8.57;;;;;;;;;;4958151;28;20475;-54
2022/11/13 04:32:10;;;;;;;13.17;8.80;;;;;;;;;;4903471;28;20442;-54
2022/11/13 04:34:36;;;;;;;16.00;9.60;;;;;;;;;;4958792;28;20434;-53
2022/11/13 04:37:02;;;;;;;11.83;7.83;;;;;;;;;;4956698;28;20542;-52
2022/11/13 04:39:28;;;;;;;16.17;10.07;;;;;;;;;;4945868;28;20476;-53
2022/11/13 04:44:39;;;;;;;22.77;10.53;;;;;;;;;;4924854;28;20453;-54
2022/11/13 04:47:05;;;;;;;33.63;9.60;;;;;;;;;;4958741;28;20487;-54
2022/11/13 04:49:31;;;;;;;48.80;9.67;;;;;;;;;;4955435;28;20437;-54
2022/11/13 04:51:57;;;;;;;16.23;9.67;;;;;;;;;;4964184;28;20468;-54
2022/11/13 04:54:23;;;;;;;20.87;8.53;;;;;;;;;;4933211;28;20481;-55
2022/11/13 04:56:49;;;;;;;15.70;8.80;;;;;;;;;;4962125;28;20484;-54
2022/11/13 04:59:15;;;;;;;18.27;10.97;;;;;;;;;;4939693;28;20484;-53
2022/11/13 05:01:41;;;;;;;8.80;8.00;;;;;;;;;;4953284;28;20472;-56
2022/11/13 05:04:07;;;;;;;20.17;9.73;;;;;;;;;;4932642;28;20597;-55
2022/11/13 05:06:36;;;;;;;30.60;10.80;;;;;;;;;;4952938;28;20596;-54
2022/11/13 05:09:02;;;;;;;24.67;10.30;;;;;;;;;;4947287;28;20581;-53
2022/11/13 05:11:28;;;;;;;27.67;10.13;;;;;;;;;;4948768;28;20539;-54
2022/11/13 05:13:54;;;;;;;16.67;10.50;;;;;;;;;;4950300;28;20447;-54
2022/11/13 05:16:20;;;;;;;14.60;10.33;;;;;;;;;;4947498;28;20939;-54
2022/11/13 05:18:46;;;;;;;21.53;10.50;;;;;;;;;;4947116;28;20450;-55
2022/11/13 05:21:12;;;;;;;12.90;9.60;;;;;;;;;;4947142;28;20457;-54
2022/11/13 05:23:38;;;;;;;16.97;11.10;;;;;;;;;;4934120;28;20465;-54
2022/11/13 05:26:05;;;;;;;11.73;9.10;;;;;;;;;;4961988;28;20476;-54
2022/11/13 05:28:31;;;;;;;15.77;9.70;;;;;;;;;;4938352;28;20445;-54
2022/11/13 05:31:04;;;;;;;10.70;9.27;;;;;;;;;;4943182;28;20848;-54
2022/11/13 05:33:30;;;;;;;11.63;9.10;;;;;;;;;;4933827;28;20445;-54
2022/11/13 05:36:00;;;;;;;13.13;8.03;;;;;;;;;;4965592;28;20446;-54
2022/11/13 05:38:26;;;;;;;10.50;7.90;;;;;;;;;;4927093;28;20448;-54
2022/11/13 05:40:51;;;;;;;10.23;8.33;;;;;;;;;;4962213;28;20477;-54
2022/11/13 05:43:17;;;;;;;12.90;8.40;;;;;;;;;;4938614;28;20449;-54
2022/11/13 05:45:43;;;;;;;9.43;8.00;;;;;;;;;;4963176;28;20568;-54
2022/11/13 05:48:09;;;;;;;8.67;7.73;;;;;;;;;;4941626;28;20942;-54
2022/11/13 05:50:35;;;;;;;9.40;8.33;;;;;;;;;;4958878;28;22498;-53
2022/11/13 05:53:01;;;;;;;10.90;7.73;;;;;;;;;;4934066;28;20436;-54
2022/11/13 05:55:27;;;;;;;10.33;6.83;;;;;;;;;;4965184;28;20434;-55
2022/11/13 05:57:53;;;;;;;12.30;8.37;;;;;;;;;;4951909;28;20453;-55
2022/11/13 06:00:19;;;;;;;12.40;8.80;;;;;;;;;;4959419;28;20560;-55
2022/11/13 06:02:45;;;;;;;10.63;8.20;;;;;;;;;;4937499;28;20596;-54
2022/11/13 06:05:11;;;;;;;9.90;7.33;;;;;;;;;;4959477;28;20856;-53
2022/11/13 06:07:37;;;;;;;10.80;7.77;;;;;;;;;;4926990;28;20445;-54
2022/11/13 06:10:03;;;;;;;12.13;8.70;;;;;;;;;;4962758;28;20993;-54
2022/11/13 06:12:29;;;;;;;9.50;6.60;;;;;;;;;;4934921;28;20450;-54
2022/11/13 06:14:55;;;;;;;9.03;6.43;;;;;;;;;;4957659;28;20462;-55
2022/11/13 06:17:21;;;;;;;9.33;6.67;;;;;;;;;;4955020;28;20422;-55
2022/11/13 06:19:47;;;;;;;9.20;7.63;;;;;;;;;;4959425;28;20490;-55
2022/11/13 06:22:13;;;;;;;10.37;7.00;;;;;;;;;;4934212;28;20928;-55
2022/11/13 06:24:39;;;;;;;15.40;6.03;;;;;;;;;;4958789;28;20984;-60
2022/11/13 06:27:05;;;;;;;9.10;6.50;;;;;;;;;;4952935;28;20972;-56
2022/11/13 06:29:31;;;;;;;8.47;7.20;;;;;;;;;;4958426;28;20962;-54
2022/11/13 06:31:57;;;;;;;8.83;6.23;;;;;;;;;;4940571;28;21177;-56
2022/11/13 06:34:23;;;;;;;11.57;7.53;;;;;;;;;;4956303;28;20450;-55
2022/11/13 06:36:57;;;;;;;10.37;6.67;;;;;;;;;;4932702;28;20730;-54
2022/11/13 06:39:26;;;;;;;13.43;7.87;;;;;;;;;;4950902;28;20488;-54
2022/11/13 06:41:52;;;;;;;8.73;6.73;;;;;;;;;;4956653;28;20466;-55
2022/11/13 06:44:17;;;;;;;9.50;7.30;;;;;;;;;;4934441;28;20532;-53
2022/11/13 06:46:43;;;;;;;10.00;6.90;;;;;;;;;;4955012;28;20470;-54
2022/11/13 06:49:09;;;;;;;10.50;6.13;;;;;;;;;;4938924;28;20477;-55
2022/11/13 06:51:35;;;;;;;11.17;7.20;;;;;;;;;;4957644;28;20449;-54
2022/11/13 06:54:01;;;;;;;11.60;7.27;;;;;;;;;;4934836;28;20438;-55
2022/11/13 06:56:27;;;;;;;9.70;7.50;;;;;;;;;;4955033;28;20439;-55
2022/11/13 06:58:54;;;;;;;14.93;7.63;;;;;;;;;;4955687;28;20448;-54
2022/11/13 07:01:21;;;;;;;19.80;8.70;;;;;;;;;;4960278;28;20499;-53
2022/11/13 07:03:47;;;;;;;27.93;7.80;;;;;;;;;;4935439;28;20460;-53
2022/11/13 07:06:14;;;;;;;17.70;8.60;;;;;;;;;;4948472;28;21197;-56
2022/11/13 07:08:43;;;;;;;18.50;7.00;;;;;;;;;;4912035;28;20459;-54
2022/11/13 07:11:09;;;;;;;56.60;27.47;;;;;;;;;;4955173;28;20433;-55
2022/11/13 07:13:36;;;;;;;39.57;24.47;;;;;;;;;;4930650;28;20461;-54
2022/11/13 07:16:02;;;;;;;39.67;19.80;;;;;;;;;;4956894;28;20442;-54
2022/11/13 07:18:29;;;;;;;21.20;13.57;;;;;;;;;;4932243;28;21006;-54
2022/11/13 07:20:55;;;;;;;19.50;11.47;;;;;;;;;;4956063;28;20479;-56
2022/11/13 07:23:21;;;;;;;19.20;11.63;;;;;;;;;;4932741;28;20495;-54
2022/11/13 07:25:47;;;;;;;9.53;7.93;;;;;;;;;;4935732;28;20429;-55
2022/11/13 07:28:13;;;;;;;10.53;8.53;;;;;;;;;;4952974;28;20934;-54
2022/11/13 07:30:39;;;;;;;24.80;8.70;;;;;;;;;;4955710;28;20453;-54
2022/11/13 07:33:05;;;;;;;7.87;6.97;;;;;;;;;;4948697;28;20425;-54
2022/11/13 07:35:31;;;;;;;8.17;7.03;;;;;;;;;;4936686;28;20675;-55
2022/11/13 07:37:57;;;;;;;10.07;8.00;;;;;;;;;;4943267;28;20537;-55
2022/11/13 07:40:38;;;;;;;10.57;7.40;;;;;;;;;;4944891;28;20986;-54
2022/11/13 07:43:08;;;;;;;9.90;7.67;;;;;;;;;;4903802;28;20473;-54
2022/11/13 07:45:34;;;;;;;16.80;9.03;;;;;;;;;;4945273;28;21341;-54
2022/11/13 07:48:00;;;;;;;22.67;7.73;;;;;;;;;;4958088;28;20465;-54
2022/11/13 07:50:27;;;;;;;20.73;6.37;;;;;;;;;;4930920;28;20950;-53
2022/11/13 07:52:57;;;;;;;13.13;6.00;;;;;;;;;;4940509;28;20450;-54
2022/11/13 07:55:23;;;;;;;8.20;6.17;;;;;;;;;;4949933;28;20809;-54
2022/11/13 07:57:49;;;;;;;8.43;6.13;;;;;;;;;;4938758;28;20472;-55
2022/11/13 08:00:15;;;;;;;18.63;6.87;;;;;;;;;;4949204;28;20583;-55
2022/11/13 08:02:41;;;;;;;37.03;7.43;;;;;;;;;;4930648;28;20450;-54
2022/11/13 08:05:07;;;;;;;17.30;6.40;;;;;;;;;;4959646;28;20431;-54
2022/11/13 08:07:33;;;;;;;25.57;8.67;;;;;;;;;;4959967;28;20822;-54
2022/11/13 08:09:59;;;;;;;11.40;6.40;;;;;;;;;;4959552;28;20437;-54
2022/11/13 08:12:25;;;;;;;9.50;6.77;;;;;;;;;;4915433;28;20451;-55
2022/11/13 08:14:51;;;;;;;17.00;7.50;;;;;;;;;;4960843;28;20437;-54
2022/11/13 08:17:17;;;;;;;10.13;6.60;;;;;;;;;;4958756;28;20449;-55
2022/11/13 08:19:43;;;;;;;7.00;5.83;;;;;;;;;;4961619;28;20481;-55
2022/11/13 08:22:09;;;;;;;16.03;6.70;;;;;;;;;;4934320;28;20528;-55
2022/11/13 08:24:35;;;;;;;8.27;6.17;;;;;;;;;;4960156;28;20465;-56
2022/11/13 08:27:01;;;;;;;9.03;5.80;;;;;;;;;;4932191;28;21021;-56
2022/11/13 08:29:26;;;;;;;6.40;5.80;;;;;;;;;;4961556;28;20452;-55
2022/11/13 08:31:52;;;;;;;17.13;7.00;;;;;;;;;;4934557;28;20527;-55
2022/11/13 08:34:19;;;;;;;12.60;6.70;;;;;;;;;;4962070;28;20474;-53
2022/11/13 08:36:44;;;;;;;8.10;6.03;;;;;;;;;;4955691;28;20465;-55
2022/11/13 08:39:10;;;;;;;9.50;6.27;;;;;;;;;;4960345;28;20441;-56
2022/11/13 08:41:36;;;;;;;7.90;6.17;;;;;;;;;;4937390;28;20520;-56
2022/11/13 08:44:02;;;;;;;24.87;6.77;;;;;;;;;;4963465;28;20433;-57
2022/11/13 08:46:28;;;;;;;19.73;6.40;;;;;;;;;;4922759;28;21467;-55
2022/11/13 08:48:54;;;;;;;23.60;6.67;;;;;;;;;;4959242;28;20687;-56
2022/11/13 08:51:20;;;;;;;8.90;5.87;;;;;;;;;;4955970;28;20813;-56
2022/11/13 08:53:47;;;;;;;7.10;5.87;;;;;;;;;;4963518;28;20561;-56
2022/11/13 08:56:13;;;;;;;10.53;5.73;;;;;;;;;;4932778;28;20503;-55
2022/11/13 08:58:39;;;;;;;8.00;5.87;;;;;;;;;;4967360;28;20496;-56
2022/11/13 09:01:05;;;;;;;8.63;6.17;;;;;;;;;;4938676;28;20901;-55
2022/11/13 09:03:31;;;;;;;7.20;5.60;;;;;;;;;;4958211;28;20932;-54
2022/11/13 09:05:57;;;;;;;7.20;6.13;;;;;;;;;;4938649;28;20453;-55
2022/11/13 09:08:23;;;;;;;6.40;5.23;;;;;;;;;;4962025;28;20553;-54
2022/11/13 09:10:49;;;;;;;5.43;4.93;;;;;;;;;;4938491;28;20488;-55
2022/11/13 09:13:15;;;;;;;9.57;6.63;;;;;;;;;;4962644;28;20958;-55
2022/11/13 09:15:41;;;;;;;7.60;6.40;;;;;;;;;;4922395;28;23974;-55
2022/11/13 09:18:08;;;;;;;7.53;6.80;;;;;;;;;;4951998;28;20697;-55
2022/11/13 09:20:34;;;;;;;5.90;5.40;;;;;;;;;;4921354;28;20481;-55
2022/11/13 09:23:01;;;;;;;6.47;5.87;;;;;;;;;;4947992;28;20437;-58
2022/11/13 09:25:27;;;;;;;8.07;6.20;;;;;;;;;;4942466;28;21155;-54
2022/11/13 09:28:00;;;;;;;6.80;6.10;;;;;;;;;;4935506;28;21270;-57
2022/11/13 09:30:26;;;;;;;7.83;6.50;;;;;;;;;;4916022;28;20449;-58
2022/11/13 09:32:53;;;;;;;7.60;6.63;;;;;;;;;;4948534;28;20441;-56
2022/11/13 09:35:32;;;;;;;8.90;6.67;;;;;;;;;;4935828;28;23379;-58
2022/11/13 09:38:02;;;;;;;6.73;6.10;;;;;;;;;;4955338;28;20445;-53
2022/11/13 09:40:51;;;;;;;7.23;6.40;;;;;;;;;;4928291;28;20535;-55
2022/11/13 09:43:21;;;;;;;7.33;6.50;;;;;;;;;;4942560;28;21190;-55
2022/11/13 09:45:47;;;;;;;7.97;6.30;;;;;;;;;;4948431;28;20533;-54
2022/11/13 09:48:29;;;;;;;6.70;5.90;;;;;;;;;;4933031;28;20434;-55
2022/11/13 09:50:55;;;;;;;6.60;5.90;;;;;;;;;;4918454;28;20501;-55
2022/11/13 09:53:21;;;;;;;8.30;6.30;;;;;;;;;;4938257;28;20520;-53
2022/11/13 09:55:57;;;;;;;12.07;8.07;;;;;;;;;;4950743;28;20958;-54
2022/11/13 09:58:45;;;;;;;7.10;6.10;;;;;;;;;;4940444;28;20438;-55
2022/11/13 10:01:15;;;;;;;8.40;5.80;;;;;;;;;;4916030;28;20489;-56
2022/11/13 10:03:45;;;;;;;7.67;6.40;;;;;;;;;;4939133;28;20460;-62
2022/11/13 10:06:26;;;;;;;7.93;7.23;;;;;;;;;;4929678;28;20975;-55
2022/11/13 10:08:52;;;;;;;8.73;6.27;;;;;;;;;;4940309;28;20891;-54
2022/11/13 10:11:51;;;;;;;7.93;6.30;;;;;;;;;;4934428;28;20446;-56
2022/11/13 10:14:18;;;;;;;8.37;6.77;;;;;;;;;;4922596;28;20438;-55
2022/11/13 10:17:03;;;;;;;7.80;7.00;;;;;;;;;;4936914;28;20461;-54
2022/11/13 10:19:31;;;;;;;8.13;5.90;;;;;;;;;;4949916;28;20489;-54
2022/11/13 10:21:59;;;;;;;5.80;5.03;;;;;;;;;;4950388;28;22296;-54
2022/11/13 10:24:32;;;;;;;8.90;8.00;;;;;;;;;;4932917;28;20456;-55
2022/11/13 10:26:59;;;;;;;10.13;8.70;;;;;;;;;;4933538;28;20438;-56
2022/11/13 10:29:25;;;;;;;8.13;6.20;;;;;;;;;;4935464;28;20496;-54
2022/11/13 10:31:51;;;;;;;7.80;7.00;;;;;;;;;;4935074;28;20456;-55
2022/11/13 10:34:18;;;;;;;8.23;7.17;;;;;;;;;;4955010;28;20454;-55
2022/11/13 10:36:49;;;;;;;8.20;6.97;;;;;;;;;;4956007;28;20446;-55
2022/11/13 10:39:15;;;;;;;8.20;6.90;;;;;;;;;;4956870;28;20449;-55
2022/11/13 10:41:47;;;;;;;7.00;6.30;;;;;;;;;;4939173;28;20445;-53
2022/11/13 10:44:19;;;;;;;7.50;6.57;;;;;;;;;;4957703;28;20918;-54
2022/11/13 10:46:45;;;;;;;7.13;6.30;;;;;;;;;;4929216;28;20513;-57
2022/11/13 10:49:17;;;;;;;6.73;6.03;;;;;;;;;;4954878;28;20520;-54
2022/11/13 10:51:43;;;;;;;7.63;6.37;;;;;;;;;;4932647;28;20467;-55
2022/11/13 10:54:27;;;;;;;7.47;6.67;;;;;;;;;;4947250;28;20433;-55
2022/11/13 10:56:59;;;;;;;6.33;5.70;;;;;;;;;;4933293;28;20908;-56
2022/11/13 10:59:25;;;;;;;9.00;6.27;;;;;;;;;;4955019;28;22061;-54
2022/11/13 11:01:51;;;;;;;6.80;6.10;;;;;;;;;;4909590;28;20461;-55
2022/11/13 11:04:26;;;;;;;6.43;5.70;;;;;;;;;;4952196;28;20440;-56
2022/11/13 11:06:52;;;;;;;7.70;6.80;;;;;;;;;;4954406;28;20460;-55
2022/11/13 11:09:20;;;;;;;7.23;6.53;;;;;;;;;;4952542;28;20478;-55
2022/11/13 11:12:15;;;;;;;6.27;5.67;;;;;;;;;;4936996;28;20601;-55
2022/11/13 11:15:01;;;;;;;6.93;6.17;;;;;;;;;;4951859;28;20509;-56
2022/11/13 11:17:46;;;;;;;6.30;5.70;;;;;;;;;;4935685;28;20430;-56
2022/11/13 11:20:14;;;;;;;8.50;5.17;;;;;;;;;;4950846;28;20472;-55
2022/11/13 11:22:40;;;;;;;6.47;5.77;;;;;;;;;;4940302;28;21025;-58
2022/11/13 11:25:12;;;;;;;7.63;6.80;;;;;;;;;;4950685;28;20489;-57
2022/11/13 11:27:41;;;;;;;8.33;7.50;;;;;;;;;;4923820;28;20437;-56
2022/11/13 11:30:20;;;;;;;6.80;6.10;;;;;;;;;;4913704;28;20458;-55
2022/11/13 11:32:49;;;;;;;6.10;5.50;;;;;;;;;;4946868;28;20434;-55
2022/11/13 11:35:17;;;;;;;7.07;6.47;;;;;;;;;;4915989;28;21188;-55
2022/11/13 11:38:02;;;;;;;6.90;6.10;;;;;;;;;;4950907;28;20471;-55
2022/11/13 11:40:33;;;;;;;6.50;5.80;;;;;;;;;;4950643;28;20474;-55
2022/11/13 11:42:59;;;;;;;5.93;4.97;;;;;;;;;;4938137;28;20462;-56
2022/11/13 11:45:25;;;;;;;6.80;5.93;;;;;;;;;;4934864;28;20450;-55
2022/11/13 11:47:52;;;;;;;6.03;5.43;;;;;;;;;;4957113;28;20442;-57
2022/11/13 11:50:32;;;;;;;5.87;5.27;;;;;;;;;;4937783;28;20442;-56
2022/11/13 11:53:00;;;;;;;6.10;5.50;;;;;;;;;;4956472;28;21053;-56
2022/11/13 11:55:29;;;;;;;5.57;5.07;;;;;;;;;;4934818;28;20449;-57
2022/11/13 11:58:05;;;;;;;6.30;5.70;;;;;;;;;;4941977;28;20495;-56
2022/11/13 12:00:31;;;;;;;6.47;5.97;;;;;;;;;;4911862;28;20477;-56
2022/11/13 12:03:18;;;;;;;6.73;6.13;;;;;;;;;;4955415;28;20446;-56
2022/11/13 12:06:13;;;;;;;7.03;6.33;;;;;;;;;;4938545;28;20442;-56
2022/11/13 12:08:43;;;;;;;6.73;6.03;;;;;;;;;;4851434;28;20550;-55
2022/11/13 12:11:15;;;;;;;7.00;6.40;;;;;;;;;;4900608;28;20529;-55
2022/11/13 12:14:00;;;;;;;6.97;6.27;;;;;;;;;;4938297;28;20429;-55
2022/11/13 12:16:41;;;;;;;6.70;6.00;;;;;;;;;;4934885;28;20452;-54
2022/11/13 12:19:22;;;;;;;7.90;7.00;;;;;;;;;;4948905;28;20438;-54
2022/11/13 12:22:03;;;;;;;8.43;7.47;;;;;;;;;;4917891;28;20456;-54
2022/11/13 12:24:35;;;;;;;7.93;6.60;;;;;;;;;;4943524;28;20444;-54
2022/11/13 12:27:01;;;;;;;7.60;5.80;;;;;;;;;;4930326;28;20500;-54
2022/11/13 12:29:27;;;;;;;7.70;6.20;;;;;;;;;;4956226;28;20528;-54
2022/11/13 12:32:02;;;;;;;8.90;6.97;;;;;;;;;;4916562;28;20533;-55
2022/11/13 12:34:33;;;;;;;7.93;6.47;;;;;;;;;;4956009;28;20966;-55
2022/11/13 12:37:07;;;;;;;8.27;6.90;;;;;;;;;;4934323;28;20477;-54
2022/11/13 12:39:36;;;;;;;6.30;5.70;;;;;;;;;;4952756;28;20492;-55
2022/11/13 12:42:05;;;;;;;6.80;6.10;;;;;;;;;;4931097;28;20454;-57
2022/11/13 12:44:32;;;;;;;8.13;6.17;;;;;;;;;;4912813;28;20446;-56
2022/11/13 12:47:00;;;;;;;7.27;6.43;;;;;;;;;;4951832;28;20477;-55
2022/11/13 12:49:28;;;;;;;8.23;6.23;;;;;;;;;;4918837;28;20445;-56
2022/11/13 12:52:14;;;;;;;6.50;5.20;;;;;;;;;;4937613;28;21344;-54
2022/11/13 12:54:40;;;;;;;6.50;5.73;;;;;;;;;;4908615;28;21600;-54
2022/11/13 12:57:06;;;;;;;6.90;5.83;;;;;;;;;;4956076;28;20453;-55
2022/11/13 12:59:33;;;;;;;10.03;6.10;;;;;;;;;;4954096;28;20461;-55
2022/11/13 13:02:16;;;;;;;9.23;6.67;;;;;;;;;;4955845;28;20345;-56
2022/11/13 13:04:45;;;;;;;8.30;7.27;;;;;;;;;;4909467;28;20841;-55
2022/11/13 13:07:30;;;;;;;7.73;6.33;;;;;;;;;;4940502;28;20540;-55
2022/11/13 13:10:08;;;;;;;6.50;5.63;;;;;;;;;;4955826;28;21014;-55
2022/11/13 13:12:39;;;;;;;7.27;6.37;;;;;;;;;;4953899;28;20441;-57
2022/11/13 13:15:24;;;;;;;7.43;6.33;;;;;;;;;;4927915;28;20454;-55
2022/11/13 13:18:01;;;;;;;7.20;6.03;;;;;;;;;;4938458;28;22151;-55
2022/11/13 13:20:28;;;;;;;7.60;6.57;;;;;;;;;;4934252;28;21318;-55
2022/11/13 13:22:58;;;;;;;7.80;6.47;;;;;;;;;;4955356;28;20441;-55
2022/11/13 13:25:34;;;;;;;8.30;6.67;;;;;;;;;;4934245;28;20456;-56
2022/11/13 13:28:15;;;;;;;6.60;6.00;;;;;;;;;;4952878;28;20446;-55
2022/11/13 13:30:52;;;;;;;7.50;6.30;;;;;;;;;;4949035;28;20542;-56
2022/11/13 13:33:25;;;;;;;6.07;5.47;;;;;;;;;;4955258;28;20785;-56
2022/11/13 13:35:51;;;;;;;7.70;6.23;;;;;;;;;;4899480;28;20936;-56
2022/11/13 13:38:17;;;;;;;6.93;6.23;;;;;;;;;;4939385;28;20438;-55
2022/11/13 13:40:46;;;;;;;7.93;6.73;;;;;;;;;;4933744;28;20476;-58
2022/11/13 13:43:16;;;;;;;6.50;5.40;;;;;;;;;;4955230;28;20430;-54
2022/11/13 13:45:42;;;;;;;9.80;6.33;;;;;;;;;;4912465;28;20534;-56
2022/11/13 13:48:09;;;;;;;8.43;5.93;;;;;;;;;;4957349;28;20431;-57
2022/11/13 13:50:38;;;;;;;6.23;5.60;;;;;;;;;;4952746;28;20450;-55
2022/11/13 13:53:04;;;;;;;8.23;6.03;;;;;;;;;;4940960;28;20443;-56
2022/11/13 13:55:32;;;;;;;6.67;5.80;;;;;;;;;;4941557;28;21054;-57
2022/11/13 13:57:58;;;;;;;7.70;6.10;;;;;;;;;;4946794;28;20444;-56
2022/11/13 14:00:25;;;;;;;7.00;6.00;;;;;;;;;;4922618;28;20482;-57
2022/11/13 14:02:51;;;;;;;7.17;5.97;;;;;;;;;;4956100;28;20422;-57
2022/11/13 14:05:25;;;;;;;8.50;4.77;;;;;;;;;;4941202;28;20449;-57
2022/11/13 14:07:51;;;;;;;6.03;5.10;;;;;;;;;;4960297;28;20946;-56
2022/11/13 14:10:19;;;;;;;6.90;5.87;;;;;;;;;;4928805;28;20521;-56
2022/11/13 14:12:46;;;;;;;8.03;5.70;;;;;;;;;;4947606;28;20458;-55
2022/11/13 14:15:25;;;;;;;7.80;5.73;;;;;;;;;;4939737;28;20731;-57
2022/11/13 14:17:51;;;;;;;6.10;4.90;;;;;;;;;;4959361;28;20444;-55
2022/11/13 14:20:17;;;;;;;8.97;7.20;;;;;;;;;;4941157;28;20540;-55
2022/11/13 14:22:43;;;;;;;7.20;5.30;;;;;;;;;;4958831;28;20466;-59
2022/11/13 14:25:17;;;;;;;7.03;6.00;;;;;;;;;;4941606;28;20943;-54
2022/11/13 14:27:43;;;;;;;7.50;5.33;;;;;;;;;;4952651;28;21953;-54
2022/11/13 14:30:19;;;;;;;11.57;6.23;;;;;;;;;;4926450;28;20465;-55
2022/11/13 14:32:45;;;;;;;7.00;6.30;;;;;;;;;;4954352;28;21361;-54
2022/11/13 14:35:24;;;;;;;9.13;6.50;;;;;;;;;;4932684;28;20450;-55
2022/11/13 14:37:50;;;;;;;6.60;5.80;;;;;;;;;;4953445;28;20676;-54
2022/11/13 14:40:22;;;;;;;7.07;6.40;;;;;;;;;;4921730;28;20496;-59
2022/11/13 14:42:50;;;;;;;8.10;5.80;;;;;;;;;;4903698;28;21006;-57
2022/11/13 14:45:16;;;;;;;7.30;6.27;;;;;;;;;;4950315;28;20955;-59
2022/11/13 14:47:42;;;;;;;7.10;6.27;;;;;;;;;;4929049;28;20477;-53